Time;durP1;ratioP1;P1;durP2;ratioP2;P2;SDS_P1;SDS_P2;PMS_P1;PMS_P2;Temp;Humidity;BMP_temperature;BMP_pressure;BME280_temperature;BME280_humidity;BME280_pressure;Samples;Min_cycle;Max_cycle;Signal;HPM_P1;HPM_P2
2023/07/25 00:01:35;;;;;;;4.80;1.90;;;16.60;99.90;;;;;;4978431;28;20019;-81
2023/07/25 00:04:00;;;;;;;8.88;2.10;;;16.60;99.90;;;;;;4988101;28;20460;-81
2023/07/25 00:06:26;;;;;;;4.95;1.80;;;16.60;99.90;;;;;;4985775;28;20029;-81
2023/07/25 00:08:51;;;;;;;6.65;2.13;;;16.60;99.90;;;;;;4984725;28;20015;-81
2023/07/25 00:11:17;;;;;;;11.82;2.33;;;16.60;99.90;;;;;;4986001;28;20063;-80
2023/07/25 00:13:43;;;;;;;6.57;2.28;;;16.50;99.90;;;;;;4984228;28;20030;-81
2023/07/25 00:16:08;;;;;;;5.78;1.92;;;16.50;99.90;;;;;;4984979;28;20037;-82
2023/07/25 00:18:34;;;;;;;6.60;2.17;;;16.50;99.90;;;;;;4980620;28;20073;-81
2023/07/25 00:21:02;;;;;;;7.15;2.50;;;16.40;99.90;;;;;;4986582;28;20101;-81
2023/07/25 00:23:27;;;;;;;4.47;2.08;;;16.50;99.90;;;;;;4982498;28;20042;-80
2023/07/25 00:25:53;;;;;;;5.93;2.00;;;16.50;99.90;;;;;;4983979;28;20084;-82
2023/07/25 00:28:23;;;;;;;6.00;1.88;;;16.40;99.90;;;;;;4986428;28;20026;-80
2023/07/25 00:30:49;;;;;;;10.48;2.35;;;16.40;99.90;;;;;;4984779;28;20030;-79
2023/07/25 00:33:14;;;;;;;9.82;2.30;;;16.30;99.90;;;;;;4986908;28;20419;-79
2023/07/25 00:35:40;;;;;;;10.68;2.63;;;16.30;99.90;;;;;;4986614;28;20030;-79
2023/07/25 00:38:08;;;;;;;4.47;2.40;;;16.30;99.90;;;;;;4985350;28;20023;-79
2023/07/25 00:40:38;;;;;;;4.95;2.47;;;16.40;99.90;;;;;;4984067;28;20435;-79
2023/07/25 00:43:04;;;;;;;10.40;2.70;;;16.30;99.90;;;;;;4978086;28;20046;-80
2023/07/25 00:45:30;;;;;;;6.80;2.70;;;16.30;99.90;;;;;;4985501;28;20046;-79
2023/07/25 00:47:55;;;;;;;8.88;2.10;;;16.20;99.90;;;;;;4982991;28;20038;-80
2023/07/25 00:50:21;;;;;;;6.15;2.25;;;16.20;99.90;;;;;;4985588;28;20023;-79
2023/07/25 00:52:47;;;;;;;5.28;2.25;;;16.20;99.90;;;;;;4985498;28;20057;-79
2023/07/25 00:55:13;;;;;;;7.55;2.25;;;16.20;99.90;;;;;;4984212;28;20498;-79
2023/07/25 00:57:41;;;;;;;3.33;2.03;;;16.10;99.90;;;;;;4983172;28;20026;-78
2023/07/25 01:00:07;;;;;;;7.72;2.47;;;16.10;99.90;;;;;;4976203;28;20025;-79
2023/07/25 01:02:33;;;;;;;8.07;2.40;;;16.10;99.90;;;;;;4985271;28;20010;-79
2023/07/25 01:04:59;;;;;;;6.85;2.10;;;16.10;99.90;;;;;;4985068;28;20772;-79
2023/07/25 01:07:25;;;;;;;16.77;2.35;;;16.10;99.90;;;;;;4983517;28;20029;-79
2023/07/25 01:09:50;;;;;;;7.10;2.45;;;16.10;99.90;;;;;;4998735;28;20030;-80
2023/07/25 01:12:16;;;;;;;16.70;2.97;;;16.00;99.90;;;;;;4984264;28;20026;-79
2023/07/25 01:14:44;;;;;;;4.78;2.40;;;16.00;99.90;;;;;;4985361;28;20034;-79
2023/07/25 01:17:18;;;;;;;6.82;2.70;;;16.00;99.90;;;;;;4984202;28;20034;-79
2023/07/25 01:19:46;;;;;;;11.00;2.33;;;16.10;99.90;;;;;;4982237;28;20018;-79
2023/07/25 01:22:12;;;;;;;8.65;2.17;;;16.10;99.90;;;;;;4984475;28;20091;-82
2023/07/25 01:24:43;;;;;;;5.68;2.88;;;16.00;99.90;;;;;;4984018;28;20037;-79
2023/07/25 01:27:09;;;;;;;11.15;2.78;;;16.00;99.90;;;;;;4984592;28;20182;-79
2023/07/25 01:29:34;;;;;;;7.88;2.55;;;16.00;99.90;;;;;;4974264;28;20038;-80
2023/07/25 01:32:02;;;;;;;12.25;2.90;;;16.00;99.90;;;;;;4974524;28;20023;-79
2023/07/25 01:34:28;;;;;;;5.57;2.40;;;15.80;99.90;;;;;;4988393;28;20835;-86
2023/07/25 01:36:53;;;;;;;6.13;2.70;;;15.80;99.90;;;;;;4989441;28;20037;-87
2023/07/25 01:39:19;;;;;;;6.53;2.60;;;15.80;99.90;;;;;;4988433;28;20548;-86
2023/07/25 01:41:45;;;;;;;12.32;2.67;;;15.70;99.90;;;;;;4989617;28;20030;-86
2023/07/25 01:44:11;;;;;;;10.43;2.95;;;15.80;99.90;;;;;;4989118;28;20493;-86
2023/07/25 01:46:41;;;;;;;3.47;2.58;;;15.80;99.90;;;;;;4990445;28;20101;-85
2023/07/25 01:49:11;;;;;;;8.38;2.60;;;15.70;99.90;;;;;;5002330;28;20037;-85
2023/07/25 01:51:37;;;;;;;8.80;2.90;;;15.70;99.90;;;;;;4989535;28;20109;-86
2023/07/25 01:54:03;;;;;;;7.93;2.30;;;15.60;99.90;;;;;;4987273;28;20102;-85
2023/07/25 01:56:29;;;;;;;8.60;2.38;;;15.60;99.90;;;;;;4985119;28;20467;-86
2023/07/25 01:58:54;;;;;;;7.82;2.42;;;15.60;99.90;;;;;;4988188;28;20037;-86
2023/07/25 02:01:22;;;;;;;6.90;2.85;;;15.60;99.90;;;;;;4987616;28;20022;-85
2023/07/25 02:03:48;;;;;;;10.20;3.65;;;15.50;99.90;;;;;;4986133;28;20101;-86
2023/07/25 02:06:14;;;;;;;15.25;2.75;;;15.50;99.90;;;;;;4988155;28;20510;-86
2023/07/25 02:08:39;;;;;;;14.75;2.40;;;15.50;99.90;;;;;;4985301;28;20034;-86
2023/07/25 02:11:05;;;;;;;4.90;2.53;;;15.40;99.90;;;;;;4984629;28;20030;-85
2023/07/25 02:13:30;;;;;;;7.00;2.85;;;15.30;99.90;;;;;;4985096;28;20438;-85
2023/07/25 02:15:56;;;;;;;5.50;2.70;;;15.30;99.90;;;;;;4983422;28;20514;-85
2023/07/25 02:18:24;;;;;;;8.88;2.42;;;15.30;99.90;;;;;;4986683;28;20022;-85
2023/07/25 02:20:49;;;;;;;5.40;2.60;;;15.20;99.90;;;;;;4986648;28;20046;-86
2023/07/25 02:23:15;;;;;;;12.18;2.80;;;15.20;99.90;;;;;;4986659;28;20026;-85
2023/07/25 02:25:41;;;;;;;4.80;2.85;;;15.20;99.90;;;;;;4986892;28;20061;-85
2023/07/25 02:28:06;;;;;;;9.77;2.92;;;15.20;99.90;;;;;;4984975;28;20019;-86
2023/07/25 02:30:32;;;;;;;4.22;2.78;;;15.10;99.90;;;;;;4986468;28;20088;-86
2023/07/25 02:32:57;;;;;;;11.07;2.67;;;15.20;99.90;;;;;;4986165;28;20022;-86
2023/07/25 02:35:23;;;;;;;7.97;3.13;;;15.30;99.90;;;;;;4986850;28;20030;-86
2023/07/25 02:37:49;;;;;;;17.02;3.30;;;15.30;99.90;;;;;;4986058;28;20037;-86
2023/07/25 02:40:14;;;;;;;11.05;3.10;;;15.40;99.90;;;;;;4983735;28;20022;-86
2023/07/25 02:42:40;;;;;;;11.40;3.25;;;15.40;99.90;;;;;;4985783;28;20160;-85
2023/07/25 02:45:06;;;;;;;5.88;3.35;;;15.40;99.90;;;;;;4980562;28;20109;-87
2023/07/25 02:47:34;;;;;;;5.40;3.00;;;15.40;99.90;;;;;;4992093;28;20038;-89
2023/07/25 02:50:00;;;;;;;6.57;2.90;;;15.40;99.90;;;;;;4983576;28;20097;-86
2023/07/25 02:52:25;;;;;;;9.10;3.22;;;15.40;99.90;;;;;;4987531;28;20098;-85
2023/07/25 02:54:51;;;;;;;3.35;2.90;;;15.40;99.90;;;;;;4987044;28;20027;-86
2023/07/25 02:57:17;;;;;;;5.60;3.17;;;15.40;99.90;;;;;;4985460;28;20599;-85
2023/07/25 02:59:42;;;;;;;4.97;2.70;;;15.40;99.90;;;;;;4985055;28;20030;-86
2023/07/25 03:02:10;;;;;;;8.07;2.95;;;15.30;99.90;;;;;;4986361;28;20057;-85
2023/07/25 03:04:35;;;;;;;3.78;2.88;;;15.20;99.90;;;;;;4985954;28;20014;-85
2023/07/25 03:07:01;;;;;;;8.13;3.45;;;15.00;99.90;;;;;;4985523;28;20529;-85
2023/07/25 03:09:27;;;;;;;3.90;2.80;;;14.80;99.90;;;;;;4984615;28;20058;-85
2023/07/25 03:11:52;;;;;;;5.50;2.67;;;14.70;99.90;;;;;;4996939;28;20501;-85
2023/07/25 03:14:22;;;;;;;7.55;2.72;;;14.60;99.90;;;;;;4989871;28;20034;-85
2023/07/25 03:16:48;;;;;;;7.03;2.78;;;14.60;99.90;;;;;;4988714;28;20466;-85
2023/07/25 03:19:13;;;;;;;5.85;2.80;;;14.50;99.90;;;;;;4981462;28;20025;-85
2023/07/25 03:21:39;;;;;;;6.40;3.00;;;14.50;99.90;;;;;;4988289;28;20022;-86
2023/07/25 03:24:05;;;;;;;7.07;2.92;;;14.50;99.90;;;;;;4988154;28;20047;-85
2023/07/25 03:26:31;;;;;;;4.65;2.42;;;14.50;99.90;;;;;;4990091;28;20050;-85
2023/07/25 03:28:56;;;;;;;6.38;3.00;;;14.60;99.90;;;;;;4989423;28;20386;-86
2023/07/25 03:31:22;;;;;;;6.68;2.90;;;14.70;99.90;;;;;;4989176;28;20037;-85
2023/07/25 03:33:47;;;;;;;8.65;3.00;;;14.60;99.90;;;;;;4988750;28;20109;-85
2023/07/25 03:36:13;;;;;;;3.92;2.80;;;14.50;99.90;;;;;;4979165;28;20650;-80
2023/07/25 03:38:39;;;;;;;6.60;3.25;;;14.50;99.90;;;;;;4988255;28;20532;-85
2023/07/25 03:41:04;;;;;;;5.55;2.83;;;14.50;99.90;;;;;;4989295;28;20022;-85
2023/07/25 03:43:30;;;;;;;7.00;2.28;;;14.60;99.90;;;;;;4987664;28;20117;-86
2023/07/25 03:45:55;;;;;;;4.90;2.58;;;14.60;99.90;;;;;;4990081;28;20109;-84
2023/07/25 03:48:21;;;;;;;3.20;2.28;;;14.50;99.90;;;;;;4989561;28;20133;-85
2023/07/25 03:50:47;;;;;;;5.25;2.40;;;14.40;99.90;;;;;;4989104;28;20026;-86
2023/07/25 03:53:12;;;;;;;12.23;3.28;;;14.40;99.90;;;;;;4989802;28;20057;-85
2023/07/25 03:55:38;;;;;;;8.50;3.75;;;14.40;99.90;;;;;;4987806;28;20555;-85
2023/07/25 03:58:03;;;;;;;8.20;3.15;;;14.40;99.90;;;;;;4985731;28;20026;-86
2023/07/25 04:00:29;;;;;;;10.07;2.85;;;14.40;99.90;;;;;;4989908;28;20478;-84
2023/07/25 04:02:54;;;;;;;7.85;3.42;;;14.50;99.90;;;;;;4985938;28;20030;-84
2023/07/25 04:05:21;;;;;;;6.82;3.80;;;14.50;99.90;;;;;;4987595;28;20098;-85
2023/07/25 04:10:16;;;;;;;14.30;4.13;;;14.50;99.90;;;;;;5017659;28;20510;-86
2023/07/25 04:12:42;;;;;;;8.95;4.10;;;14.60;99.90;;;;;;5001974;28;20061;-81
2023/07/25 04:15:08;;;;;;;12.93;4.65;;;14.60;99.90;;;;;;5015131;28;20052;-83
2023/07/25 04:17:33;;;;;;;10.98;4.50;;;14.60;99.90;;;;;;4997154;28;20025;-87
2023/07/25 04:19:59;;;;;;;11.65;4.70;;;14.60;99.90;;;;;;5004315;28;20064;-86
2023/07/25 04:22:24;;;;;;;16.88;5.40;;;14.60;99.90;;;;;;5016255;28;20026;-83
2023/07/25 04:24:50;;;;;;;7.35;5.07;;;14.60;99.90;;;;;;5004610;28;20677;-87
2023/07/25 04:27:16;;;;;;;16.20;5.75;;;14.60;99.90;;;;;;4999877;28;20044;-86
2023/07/25 04:29:41;;;;;;;9.75;5.25;;;14.70;99.90;;;;;;5017245;28;20018;-86
2023/07/25 04:32:07;;;;;;;8.45;5.05;;;14.70;99.90;;;;;;5013510;28;20083;-86
2023/07/25 04:34:35;;;;;;;10.32;5.13;;;14.70;99.90;;;;;;5020759;28;20035;-87
2023/07/25 04:37:00;;;;;;;7.22;5.00;;;14.80;99.90;;;;;;5014270;28;20041;-86
2023/07/25 04:39:26;;;;;;;14.10;5.75;;;14.80;99.90;;;;;;5014116;28;20032;-86
2023/07/25 04:41:52;;;;;;;6.55;5.15;;;14.80;99.90;;;;;;5002198;28;20028;-86
2023/07/25 04:44:17;;;;;;;8.25;4.60;;;14.80;99.90;;;;;;5014153;28;20022;-86
2023/07/25 04:46:43;;;;;;;9.88;4.95;;;14.80;99.90;;;;;;5015557;28;20076;-86
2023/07/25 04:49:11;;;;;;;7.47;4.38;;;14.80;99.90;;;;;;5014340;28;20026;-86
2023/07/25 04:51:38;;;;;;;6.72;4.43;;;14.80;99.90;;;;;;5005628;28;20113;-86
2023/07/25 04:54:03;;;;;;;6.28;4.82;;;14.80;99.90;;;;;;4994543;28;20034;-86
2023/07/25 04:56:29;;;;;;;8.98;4.70;;;14.80;99.90;;;;;;5016288;28;20022;-86
2023/07/25 04:58:54;;;;;;;11.75;5.20;;;14.70;99.90;;;;;;5015486;28;20389;-87
2023/07/25 05:01:20;;;;;;;12.40;5.47;;;14.80;99.90;;;;;;5018180;28;20029;-86
2023/07/25 05:03:46;;;;;;;15.55;5.32;;;14.80;99.90;;;;;;5004283;28;20379;-86
2023/07/25 05:06:13;;;;;;;14.10;6.22;;;14.90;99.90;;;;;;5014960;28;20032;-86
2023/07/25 05:08:39;;;;;;;9.38;5.28;;;14.90;99.90;;;;;;5016532;28;20099;-86
2023/07/25 05:11:05;;;;;;;13.32;4.90;;;14.80;99.90;;;;;;5007124;28;20021;-85
2023/07/25 05:13:33;;;;;;;8.93;4.80;;;14.90;99.90;;;;;;4999423;28;20049;-85
2023/07/25 05:15:58;;;;;;;14.20;5.13;;;14.90;99.90;;;;;;5000902;28;20025;-86
2023/07/25 05:18:24;;;;;;;14.52;5.40;;;14.90;99.90;;;;;;5014983;28;20430;-85
2023/07/25 05:20:50;;;;;;;6.72;5.20;;;15.00;99.90;;;;;;5004962;28;20049;-84
2023/07/25 05:23:15;;;;;;;8.32;4.82;;;15.10;99.90;;;;;;5016832;28;20010;-85
2023/07/25 05:25:41;;;;;;;14.52;5.43;;;15.10;99.90;;;;;;4997284;28;20030;-86
2023/07/25 05:28:06;;;;;;;9.95;5.03;;;15.20;99.90;;;;;;5014400;28;20541;-86
2023/07/25 05:30:33;;;;;;;12.13;5.65;;;15.30;99.90;;;;;;5016089;28;20025;-83
2023/07/25 05:32:58;;;;;;;9.70;5.38;;;15.40;99.90;;;;;;4998699;28;20442;-85
2023/07/25 05:35:24;;;;;;;14.60;5.40;;;15.50;99.90;;;;;;5005874;28;20029;-85
2023/07/25 05:37:50;;;;;;;15.13;5.45;;;15.60;99.90;;;;;;5001666;28;20029;-86
2023/07/25 05:40:15;;;;;;;11.27;5.07;;;15.50;99.90;;;;;;4999219;28;20033;-86
2023/07/25 05:42:41;;;;;;;10.20;5.03;;;15.50;99.90;;;;;;5015628;28;20029;-86
2023/07/25 05:45:07;;;;;;;8.05;4.63;;;15.50;99.90;;;;;;5000546;28;20021;-85
2023/07/25 05:47:32;;;;;;;9.40;4.60;;;15.50;99.90;;;;;;4999967;28;20111;-85
2023/07/25 05:50:00;;;;;;;12.70;4.88;;;15.50;99.90;;;;;;5013305;28;20091;-85
2023/07/25 05:52:26;;;;;;;10.65;4.78;;;15.60;99.90;;;;;;5012355;28;20661;-85
2023/07/25 05:54:53;;;;;;;8.10;4.22;;;15.60;99.90;;;;;;5012713;28;20022;-85
2023/07/25 05:57:19;;;;;;;9.15;4.40;;;15.70;99.90;;;;;;5001825;28;20018;-85
2023/07/25 05:59:45;;;;;;;9.82;4.22;;;15.70;99.90;;;;;;5016056;28;20037;-86
2023/07/25 06:02:11;;;;;;;11.57;3.92;;;15.90;99.90;;;;;;5015833;28;20014;-85
2023/07/25 06:04:38;;;;;;;9.10;3.95;;;16.00;99.90;;;;;;5017136;28;20044;-86
2023/07/25 06:07:06;;;;;;;9.70;3.97;;;16.10;99.90;;;;;;5016508;28;20014;-86
2023/07/25 06:09:31;;;;;;;14.25;4.22;;;16.10;99.90;;;;;;4996509;28;20515;-84
2023/07/25 06:11:57;;;;;;;8.57;3.85;;;16.20;99.90;;;;;;4996714;28;20026;-86
2023/07/25 06:14:23;;;;;;;10.20;4.25;;;16.10;99.90;;;;;;5000814;28;20025;-85
2023/07/25 06:16:48;;;;;;;9.68;3.78;;;16.10;99.90;;;;;;5014547;28;20113;-86
2023/07/25 06:19:14;;;;;;;10.35;3.80;;;16.10;99.90;;;;;;5015609;28;20029;-85
2023/07/25 06:21:42;;;;;;;10.57;3.60;;;16.10;99.90;;;;;;4997964;28;20026;-84
2023/07/25 06:24:10;;;;;;;8.60;3.53;;;16.20;99.90;;;;;;4999414;28;20036;-86
2023/07/25 06:26:36;;;;;;;12.65;3.72;;;16.30;99.90;;;;;;5014692;28;20022;-86
2023/07/25 06:29:01;;;;;;;9.07;3.55;;;16.40;99.90;;;;;;5002292;28;20028;-83
2023/07/25 06:31:27;;;;;;;8.52;3.15;;;16.50;99.90;;;;;;5008161;28;20025;-86
2023/07/25 06:33:55;;;;;;;10.48;2.67;;;16.60;99.90;;;;;;4998722;28;20136;-84
2023/07/25 06:36:21;;;;;;;7.93;2.80;;;16.70;99.90;;;;;;5005918;28;20014;-87
2023/07/25 06:38:46;;;;;;;7.82;3.15;;;16.70;99.80;;;;;;5000511;28;20029;-86
2023/07/25 06:41:12;;;;;;;5.43;2.65;;;16.90;99.70;;;;;;5004888;28;20030;-84
2023/07/25 06:43:37;;;;;;;18.27;2.78;;;16.90;98.90;;;;;;5017140;28;20105;-84
2023/07/25 06:46:03;;;;;;;7.40;3.05;;;17.00;98.70;;;;;;5018525;28;20021;-84
2023/07/25 06:48:28;;;;;;;11.50;3.25;;;17.10;98.90;;;;;;5019239;28;20021;-84
2023/07/25 06:50:54;;;;;;;8.20;2.70;;;17.10;98.90;;;;;;5020855;28;20030;-84
2023/07/25 06:53:20;;;;;;;7.05;2.50;;;17.20;99.10;;;;;;5023031;28;20032;-86
2023/07/25 06:55:46;;;;;;;11.38;2.85;;;17.20;98.90;;;;;;5019040;28;20025;-84
2023/07/25 06:58:12;;;;;;;9.23;2.50;;;17.30;98.70;;;;;;5009424;28;20017;-85
2023/07/25 07:00:42;;;;;;;9.48;2.00;;;17.30;98.40;;;;;;5010744;28;20014;-86
2023/07/25 07:03:10;;;;;;;8.82;2.38;;;17.40;98.40;;;;;;4999715;28;20093;-84
2023/07/25 07:05:38;;;;;;;8.80;2.40;;;17.50;98.10;;;;;;5020482;28;20021;-84
2023/07/25 07:08:04;;;;;;;10.52;2.75;;;17.60;98.40;;;;;;5000304;28;20034;-84
2023/07/25 07:10:32;;;;;;;11.73;2.35;;;17.60;98.20;;;;;;5002866;28;20397;-84
2023/07/25 07:12:57;;;;;;;5.70;2.60;;;17.70;97.70;;;;;;4999989;28;20077;-85
2023/07/25 07:15:24;;;;;;;11.52;2.25;;;17.90;97.80;;;;;;5004360;28;20061;-86
2023/07/25 07:17:51;;;;;;;7.50;2.08;;;18.00;97.60;;;;;;5002888;28;20030;-86
2023/07/25 07:20:17;;;;;;;7.00;2.00;;;17.90;97.20;;;;;;5019837;28;20026;-87
2023/07/25 07:22:43;;;;;;;8.20;1.98;;;17.90;97.70;;;;;;5002518;28;20025;-85
2023/07/25 07:25:09;;;;;;;11.38;1.98;;;18.00;96.90;;;;;;5003788;28;20034;-86
2023/07/25 07:27:34;;;;;;;12.68;2.30;;;18.10;97.20;;;;;;5009362;28;20075;-85
2023/07/25 07:30:00;;;;;;;13.98;2.22;;;18.00;96.60;;;;;;5015596;28;20096;-86
2023/07/25 07:32:26;;;;;;;10.40;2.67;;;18.20;97.10;;;;;;5002501;28;20026;-85
2023/07/25 07:34:54;;;;;;;5.22;1.90;;;18.50;96.50;;;;;;5018793;28;20060;-87
2023/07/25 07:37:22;;;;;;;8.05;2.25;;;18.70;95.80;;;;;;5019128;28;20113;-84
2023/07/25 07:39:47;;;;;;;9.43;2.03;;;18.80;95.90;;;;;;5018115;28;20021;-84
2023/07/25 07:42:13;;;;;;;14.15;1.80;;;18.80;95.80;;;;;;5022344;28;20078;-84
2023/07/25 07:44:39;;;;;;;7.80;2.17;;;18.70;95.60;;;;;;5006756;28;20037;-85
2023/07/25 07:47:07;;;;;;;9.32;1.77;;;18.70;95.70;;;;;;5018885;28;20018;-84
2023/07/25 07:49:36;;;;;;;7.80;2.20;;;18.80;95.80;;;;;;5003809;28;20036;-89
2023/07/25 07:52:01;;;;;;;9.00;2.13;;;18.90;95.10;;;;;;5009381;28;20508;-85
2023/07/25 07:54:27;;;;;;;13.48;2.13;;;18.90;94.60;;;;;;5003552;28;20026;-85
2023/07/25 07:56:52;;;;;;;13.70;1.83;;;18.70;94.90;;;;;;5017397;28;20029;-84
2023/07/25 07:59:18;;;;;;;10.20;2.08;;;18.80;95.50;;;;;;5019132;28;20025;-86
2023/07/25 08:01:44;;;;;;;7.90;2.15;;;18.90;94.80;;;;;;5006984;28;20033;-86
2023/07/25 08:04:10;;;;;;;5.93;1.60;;;18.70;94.40;;;;;;5017878;28;20022;-85
2023/07/25 08:06:38;;;;;;;10.82;1.75;;;18.90;95.00;;;;;;5017057;28;20458;-85
2023/07/25 08:09:04;;;;;;;9.60;2.53;;;18.80;94.90;;;;;;5018983;28;20394;-85
2023/07/25 08:11:32;;;;;;;6.82;1.45;;;18.70;95.00;;;;;;5019378;28;20027;-85
2023/07/25 08:13:58;;;;;;;7.40;1.90;;;18.80;94.90;;;;;;5003537;28;20402;-85
2023/07/25 08:16:23;;;;;;;7.70;1.77;;;19.10;94.80;;;;;;5007072;28;20033;-86
2023/07/25 08:18:49;;;;;;;8.07;1.48;;;19.20;94.80;;;;;;5023209;28;20029;-85
2023/07/25 08:21:14;;;;;;;5.47;1.75;;;19.40;94.00;;;;;;5023265;28;20038;-82
2023/07/25 08:23:40;;;;;;;11.57;2.15;;;19.40;93.60;;;;;;5009554;28;20026;-85
2023/07/25 08:26:06;;;;;;;8.73;1.70;;;19.50;93.30;;;;;;5020372;28;20025;-85
2023/07/25 08:28:31;;;;;;;14.85;2.55;;;19.60;93.30;;;;;;5019691;28;20048;-85
2023/07/25 08:31:07;;;;;;;8.45;1.92;;;19.30;92.50;;;;;;4997152;28;20121;-85
2023/07/25 08:33:34;;;;;;;10.18;1.85;;;19.20;93.20;;;;;;5000763;28;20065;-86
2023/07/25 08:36:00;;;;;;;4.32;1.50;;;19.40;93.70;;;;;;5006758;28;20413;-85
2023/07/25 08:38:27;;;;;;;9.88;1.65;;;19.50;93.00;;;;;;5021246;28;20529;-85
2023/07/25 08:41:05;;;;;;;4.97;1.67;;;19.90;91.90;;;;;;5016223;28;20044;-85
2023/07/25 08:43:37;;;;;;;11.15;2.10;;;20.20;92.10;;;;;;5009129;28;20068;-86
2023/07/25 08:46:08;;;;;;;5.70;1.65;;;20.40;90.60;;;;;;5000654;28;20032;-85
2023/07/25 08:48:38;;;;;;;6.88;1.60;;;20.50;89.10;;;;;;4997752;28;20500;-85
2023/07/25 08:51:07;;;;;;;5.15;1.52;;;20.40;88.90;;;;;;5017843;28;20072;-85
2023/07/25 08:53:38;;;;;;;6.85;1.85;;;20.20;89.20;;;;;;5017334;28;20068;-86
2023/07/25 08:56:04;;;;;;;6.63;1.67;;;20.00;89.70;;;;;;5018105;28;20010;-86
2023/07/25 08:58:30;;;;;;;3.97;1.35;;;20.30;90.90;;;;;;5005830;28;20026;-92
2023/07/25 09:00:57;;;;;;;8.20;1.60;;;20.30;90.60;;;;;;5001954;28;20029;-85
2023/07/25 09:03:24;;;;;;;5.43;2.15;;;20.10;90.00;;;;;;5007189;28;20014;-86
2023/07/25 09:05:50;;;;;;;6.22;1.90;;;20.10;88.70;;;;;;5001864;28;20492;-83
2023/07/25 09:08:16;;;;;;;7.85;2.08;;;20.10;90.00;;;;;;5018170;28;20021;-86
2023/07/25 09:10:44;;;;;;;8.48;1.83;;;20.20;90.30;;;;;;5017623;28;20370;-85
2023/07/25 09:13:10;;;;;;;16.00;1.90;;;20.10;90.80;;;;;;5006050;28;20030;-85
2023/07/25 09:15:36;;;;;;;5.30;1.80;;;20.20;91.30;;;;;;5008909;28;20025;-86
2023/07/25 09:18:01;;;;;;;9.38;2.08;;;20.20;91.30;;;;;;5015864;28;20109;-86
2023/07/25 09:20:29;;;;;;;4.70;1.50;;;20.10;91.30;;;;;;5017688;28;20021;-85
2023/07/25 09:22:55;;;;;;;9.93;2.47;;;20.20;90.50;;;;;;5001747;28;20033;-86
2023/07/25 09:25:21;;;;;;;10.82;1.80;;;20.50;90.10;;;;;;5006553;28;20627;-84
2023/07/25 09:27:46;;;;;;;9.27;1.60;;;20.30;90.10;;;;;;5001706;28;20021;-85
2023/07/25 09:30:13;;;;;;;4.75;1.50;;;20.50;90.20;;;;;;5018502;28;20025;-85
2023/07/25 09:32:46;;;;;;;9.80;1.60;;;20.70;87.90;;;;;;5018635;28;20052;-84
2023/07/25 09:35:12;;;;;;;10.90;1.60;;;21.10;87.40;;;;;;4996832;28;20119;-84
2023/07/25 09:37:37;;;;;;;5.30;1.42;;;20.90;87.50;;;;;;5004523;28;20061;-84
2023/07/25 09:40:11;;;;;;;5.32;1.55;;;20.90;88.10;;;;;;4994567;28;20125;-87
2023/07/25 09:42:42;;;;;;;7.05;1.70;;;20.90;86.60;;;;;;5015574;28;20037;-84
2023/07/25 09:45:12;;;;;;;6.57;1.50;;;20.90;86.10;;;;;;5015450;28;20037;-84
2023/07/25 09:47:40;;;;;;;2.60;1.33;;;20.90;86.90;;;;;;5013932;28;20045;-84
2023/07/25 09:50:09;;;;;;;4.25;1.42;;;21.10;84.90;;;;;;5016886;28;20037;-84
2023/07/25 09:52:42;;;;;;;10.65;1.70;;;21.40;87.10;;;;;;5004065;28;20041;-85
2023/07/25 09:55:10;;;;;;;4.47;1.20;;;21.30;86.10;;;;;;5017964;28;20025;-85
2023/07/25 09:57:35;;;;;;;6.57;1.40;;;20.80;83.80;;;;;;4990547;28;20029;-84
2023/07/25 10:00:03;;;;;;;5.75;1.10;;;20.70;86.40;;;;;;5017573;28;20453;-83
2023/07/25 10:02:29;;;;;;;4.40;1.02;;;20.90;87.30;;;;;;4997355;28;20240;-84
2023/07/25 10:04:56;;;;;;;2.20;0.98;;;21.20;85.10;;;;;;5010296;28;20026;-84
2023/07/25 10:07:26;;;;;;;4.90;1.10;;;21.30;83.80;;;;;;4999597;28;20053;-84
2023/07/25 10:09:52;;;;;;;2.22;0.88;;;21.60;81.50;;;;;;5013274;28;20702;-85
2023/07/25 10:12:18;;;;;;;3.55;1.00;;;21.70;82.30;;;;;;4991246;28;20032;-84
2023/07/25 10:14:46;;;;;;;3.80;1.42;;;22.10;82.60;;;;;;5013187;28;20037;-84
2023/07/25 10:17:12;;;;;;;3.58;1.23;;;22.60;79.70;;;;;;4997611;28;20017;-84
2023/07/25 10:19:55;;;;;;;3.55;1.38;;;23.10;77.50;;;;;;4997456;28;20516;-84
2023/07/25 10:22:34;;;;;;;;;;;23.20;76.30;;;;;;5015794;28;20116;-84
2023/07/25 10:25:00;;;;;;;4.50;1.00;;;23.00;76.70;;;;;;4998569;28;19923;-84
2023/07/25 10:27:27;;;;;;;3.25;1.00;;;22.90;79.80;;;;;;5003671;28;20384;-84
2023/07/25 10:29:52;;;;;;;3.75;1.20;;;23.10;80.60;;;;;;5005387;28;20025;-85
2023/07/25 10:32:45;;;;;;;3.13;1.15;;;23.20;78.30;;;;;;5017085;28;20033;-85
2023/07/25 10:35:10;;;;;;;4.25;0.90;;;23.30;76.70;;;;;;5000063;28;20110;-85
2023/07/25 10:37:43;;;;;;;4.38;1.30;;;23.30;78.00;;;;;;5013986;28;20029;-84
2023/07/25 10:40:14;;;;;;;3.22;1.20;;;23.00;74.80;;;;;;5006945;28;20080;-85
2023/07/25 10:42:44;;;;;;;4.38;1.20;;;22.70;75.90;;;;;;5011228;28;20035;-84
2023/07/25 10:45:44;;;;;;;2.67;1.08;;;22.40;78.00;;;;;;5003812;28;20033;-85
2023/07/25 10:48:34;;;;;;;6.25;1.30;;;22.00;77.60;;;;;;4983411;28;20461;-85
2023/07/25 10:51:06;;;;;;;3.67;1.17;;;22.00;77.50;;;;;;5016921;28;20274;-85
2023/07/25 10:53:33;;;;;;;11.55;1.17;;;22.20;75.60;;;;;;5013708;28;20030;-85
2023/07/25 10:56:04;;;;;;;5.50;1.35;;;22.40;76.30;;;;;;5014385;28;20045;-85
2023/07/25 10:58:34;;;;;;;3.92;1.67;;;22.70;77.30;;;;;;5016582;28;20040;-85
2023/07/25 11:01:01;;;;;;;5.15;2.50;;;23.40;72.10;;;;;;4999330;28;20065;-85
2023/07/25 11:03:31;;;;;;;5.45;1.67;;;23.70;68.80;;;;;;5004483;28;20025;-82
2023/07/25 11:06:06;;;;;;;5.40;1.10;;;23.60;72.20;;;;;;5005138;28;20490;-84
2023/07/25 11:08:35;;;;;;;3.20;1.10;;;23.40;71.10;;;;;;4979495;28;20030;-85
2023/07/25 11:11:08;;;;;;;5.93;1.40;;;23.30;71.90;;;;;;4995391;28;20026;-85
2023/07/25 11:13:37;;;;;;;6.70;1.40;;;23.70;73.20;;;;;;4975119;28;20130;-85
2023/07/25 11:16:07;;;;;;;4.63;1.58;;;24.10;72.30;;;;;;4992792;28;20075;-85
2023/07/25 11:18:37;;;;;;;3.28;1.38;;;23.90;69.50;;;;;;4994496;28;20088;-84
2023/07/25 11:21:05;;;;;;;3.63;1.25;;;24.10;73.30;;;;;;4997051;28;20029;-85
2023/07/25 11:23:31;;;;;;;3.58;1.30;;;24.10;71.00;;;;;;4992350;28;20053;-84
2023/07/25 11:25:59;;;;;;;4.78;1.17;;;24.10;71.30;;;;;;4992308;28;20117;-84
2023/07/25 11:28:25;;;;;;;5.95;1.60;;;24.00;70.00;;;;;;4981367;28;20374;-85
2023/07/25 11:30:54;;;;;;;4.75;1.40;;;24.00;72.70;;;;;;4996331;28;20022;-85
2023/07/25 11:33:20;;;;;;;3.45;1.02;;;24.10;70.50;;;;;;4993417;28;20068;-84
2023/07/25 11:35:51;;;;;;;6.60;1.40;;;24.10;71.30;;;;;;4996230;28;20048;-84
2023/07/25 11:38:17;;;;;;;3.97;1.17;;;23.80;74.50;;;;;;4998980;28;20108;-85
2023/07/25 11:40:53;;;;;;;8.10;1.30;;;23.70;72.60;;;;;;5001755;28;20298;-85
2023/07/25 11:43:19;;;;;;;4.55;1.75;;;23.80;72.30;;;;;;4994872;28;20026;-85
2023/07/25 11:45:45;;;;;;;2.95;1.50;;;23.40;71.50;;;;;;4978505;28;20081;-85
2023/07/25 11:48:17;;;;;;;10.27;1.70;;;23.50;72.40;;;;;;4974972;28;20034;-83
2023/07/25 11:50:44;;;;;;;4.80;1.80;;;23.20;74.80;;;;;;4989921;28;20022;-85
2023/07/25 11:53:12;;;;;;;7.10;2.22;;;23.20;75.40;;;;;;4975695;28;20602;-84
2023/07/25 11:55:38;;;;;;;2.80;1.60;;;23.30;74.00;;;;;;4975604;28;20022;-85
2023/07/25 11:58:04;;;;;;;6.75;2.25;;;23.30;75.20;;;;;;4981135;28;20532;-84
2023/07/25 12:00:42;;;;;;;6.35;1.70;;;23.10;72.60;;;;;;4994930;28;20466;-85
2023/07/25 12:03:25;;;;;;;2.85;1.75;;;23.10;73.80;;;;;;4991782;28;20021;-85
2023/07/25 12:05:57;;;;;;;;;;;23.10;73.50;;;;;;5002381;28;20277;-84
2023/07/25 12:08:37;;;;;;;4.25;1.40;;;22.90;72.00;;;;;;4997233;28;19920;-84
2023/07/25 12:11:04;;;;;;;2.15;1.00;;;23.40;74.10;;;;;;4984762;28;20348;-85
2023/07/25 12:13:30;;;;;;;5.07;1.55;;;23.90;70.70;;;;;;4992454;28;20041;-86
2023/07/25 12:15:57;;;;;;;3.50;1.00;;;24.10;71.90;;;;;;4976222;28;20069;-86
2023/07/25 12:18:31;;;;;;;5.60;1.05;;;24.60;68.20;;;;;;4993768;28;20438;-86
2023/07/25 12:20:59;;;;;;;4.88;1.42;;;25.10;68.10;;;;;;4997338;28;20034;-84
2023/07/25 12:23:37;;;;;;;2.90;1.08;;;25.30;64.20;;;;;;4997932;28;20101;-87
2023/07/25 12:26:04;;;;;;;3.60;1.70;;;25.50;61.60;;;;;;4997294;28;20061;-87
2023/07/25 12:28:44;;;;;;;3.95;1.08;;;25.40;65.90;;;;;;4992011;28;20038;-86
2023/07/25 12:31:11;;;;;;;2.15;0.80;;;25.10;59.40;;;;;;4994954;28;20094;-85
2023/07/25 12:33:37;;;;;;;4.15;1.00;;;25.10;60.40;;;;;;4991358;28;20037;-86
2023/07/25 12:36:04;;;;;;;1.20;1.05;;;25.30;60.40;;;;;;4998582;28;20025;-86
2023/07/25 12:38:29;;;;;;;5.13;1.15;;;25.50;63.30;;;;;;4994442;28;20030;-86
2023/07/25 12:40:55;;;;;;;3.47;1.52;;;25.40;61.00;;;;;;4998321;28;20131;-86
2023/07/25 12:43:21;;;;;;;10.55;1.65;;;25.40;61.10;;;;;;4998157;28;20093;-86
2023/07/25 12:45:47;;;;;;;1.95;1.10;;;25.50;65.50;;;;;;4978431;28;20030;-84
2023/07/25 12:48:12;;;;;;;1.38;1.20;;;25.70;59.90;;;;;;4989352;28;20022;-86